Terminal Aerodrome Forecast
Issued by NWS Lake Charles, LA

Home | Current Version | Previous Version | Text Only | Print | Product List | Glossary On
Versions: 1 2 3 4 5 6 7 8 9 10 11 12 13
000
FTUS44 KLCH 051136
TAFLCH
TAF
KLCH 051136Z 0512/0612 11006KT P6SM VCSH SCT080 BKN100
     FM051500 13013G22KT P6SM VCSH SCT035 SCT080
     FM052300 13006KT P6SM SCT250=

USA.gov is the U.S. government's official web portal to all federal, state and local government web resources and services.